createdAt,value
2022-11-16T00:01:34.550Z,9.93
2022-11-16T00:04:04.571Z,9.93
2022-11-16T00:06:33.093Z,9.95
2022-11-16T00:09:21.033Z,9.94
2022-11-16T00:11:56.255Z,9.96
2022-11-16T00:14:29.390Z,9.97
2022-11-16T00:16:59.238Z,9.98
2022-11-16T00:19:30.100Z,9.97
2022-11-16T00:22:00.102Z,9.98
2022-11-16T00:24:28.886Z,9.96
2022-11-16T00:26:57.446Z,9.98
2022-11-16T00:29:29.014Z,9.97
2022-11-16T00:31:57.744Z,9.97
2022-11-16T00:34:26.079Z,9.98
2022-11-16T00:36:54.608Z,9.97
2022-11-16T00:39:23.158Z,9.97
2022-11-16T00:41:53.298Z,9.97
2022-11-16T00:44:22.009Z,9.97
2022-11-16T00:46:50.484Z,9.96
2022-11-16T00:49:18.994Z,9.97
2022-11-16T00:51:47.425Z,9.96
2022-11-16T00:54:16.232Z,9.97
2022-11-16T00:56:44.493Z,9.97
2022-11-16T00:59:13.719Z,9.98
2022-11-16T01:01:43.810Z,9.98
2022-11-16T01:04:12.557Z,9.99
2022-11-16T01:06:41.217Z,9.99
2022-11-16T01:09:09.509Z,9.99
2022-11-16T01:11:56.511Z,10.00
2022-11-16T01:14:24.858Z,10.00
2022-11-16T01:16:53.270Z,10.01
2022-11-16T01:19:22.413Z,10.01
2022-11-16T01:21:50.745Z,10.03
2022-11-16T01:24:22.909Z,10.03
2022-11-16T01:26:56.978Z,10.05
2022-11-16T01:29:28.834Z,10.07
2022-11-16T01:31:59.959Z,10.07
2022-11-16T01:34:29.128Z,10.08
2022-11-16T01:37:07.773Z,10.09
2022-11-16T01:39:40.285Z,10.10
2022-11-16T01:42:21.260Z,10.12
2022-11-16T01:45:20.258Z,10.12
2022-11-16T01:47:53.329Z,10.13
2022-11-16T01:50:24.212Z,10.13
2022-11-16T01:52:57.354Z,10.14
2022-11-16T01:55:33.456Z,10.14
2022-11-16T01:58:17.632Z,10.14
2022-11-16T02:00:49.566Z,10.14
2022-11-16T02:03:31.174Z,10.15
2022-11-16T02:06:07.369Z,10.16
2022-11-16T02:09:25.811Z,10.15
2022-11-16T02:12:24.025Z,10.15
2022-11-16T02:15:03.863Z,10.15
2022-11-16T02:21:41.203Z,10.13
2022-11-16T02:24:37.321Z,10.11
2022-11-16T02:27:25.827Z,10.09
2022-11-16T02:29:57.896Z,10.09
2022-11-16T02:32:50.144Z,10.07
2022-11-16T02:35:25.369Z,10.07
2022-11-16T02:38:05.020Z,10.06
2022-11-16T02:40:41.021Z,10.05
2022-11-16T02:43:14.190Z,10.04
2022-11-16T02:45:49.647Z,10.04
2022-11-16T02:48:26.190Z,10.03
2022-11-16T02:50:56.351Z,10.02
2022-11-16T02:53:25.896Z,10.02
2022-11-16T02:55:56.605Z,10.01
2022-11-16T02:58:26.738Z,10.00
2022-11-16T03:01:34.638Z,9.99
2022-11-16T03:04:26.783Z,9.97
2022-11-16T03:06:58.365Z,9.95
2022-11-16T03:09:30.882Z,9.94
2022-11-16T03:12:05.890Z,9.92
2022-11-16T03:14:36.341Z,9.92
2022-11-16T03:17:09.131Z,9.90
2022-11-16T03:19:49.074Z,9.90
2022-11-16T03:22:26.606Z,9.89
2022-11-16T03:24:55.797Z,9.88
2022-11-16T03:27:33.109Z,9.87
2022-11-16T03:30:23.732Z,9.86
2022-11-16T03:33:20.977Z,9.86
2022-11-16T03:36:34.263Z,9.85
2022-11-16T03:39:16.057Z,9.85
2022-11-16T03:41:48.547Z,9.84
2022-11-16T03:44:19.819Z,9.84
2022-11-16T03:46:48.759Z,9.83
2022-11-16T03:49:22.611Z,9.83
2022-11-16T03:51:53.067Z,9.82
2022-11-16T03:54:22.063Z,9.83
2022-11-16T03:56:50.898Z,9.84
2022-11-16T03:59:19.816Z,9.84
2022-11-16T04:01:48.470Z,9.84
2022-11-16T04:04:35.764Z,9.85
2022-11-16T04:07:24.390Z,9.84
2022-11-16T04:10:12.763Z,9.84
2022-11-16T04:13:06.340Z,9.83
2022-11-16T04:15:53.568Z,9.82
2022-11-16T04:18:45.314Z,9.82
2022-11-16T04:21:44.269Z,9.81
2022-11-16T04:24:22.343Z,9.79
2022-11-16T04:27:13.280Z,9.80
2022-11-16T04:29:42.472Z,9.77
2022-11-16T04:32:33.483Z,9.76
2022-11-16T04:35:20.584Z,9.75
2022-11-16T04:37:48.855Z,9.75
2022-11-16T04:40:25.207Z,9.74
2022-11-16T04:42:57.198Z,9.73
2022-11-16T04:45:46.591Z,9.73
2022-11-16T04:48:18.034Z,9.72
2022-11-16T04:50:47.231Z,9.73
2022-11-16T04:53:15.574Z,9.71
2022-11-16T04:56:00.747Z,9.68
2022-11-16T04:58:31.031Z,9.70
2022-11-16T05:01:00.348Z,9.68
2022-11-16T05:03:29.817Z,9.67
2022-11-16T05:06:01.301Z,9.66
2022-11-16T05:08:30.374Z,9.67
2022-11-16T05:10:59.811Z,9.66
2022-11-16T05:13:30.170Z,9.64
2022-11-16T05:15:59.369Z,9.63
2022-11-16T05:18:29.186Z,9.62
2022-11-16T05:21:01.866Z,9.62
2022-11-16T05:23:57.226Z,9.60
2022-11-16T05:26:30.192Z,9.59
2022-11-16T05:28:58.856Z,9.58
2022-11-16T05:31:27.760Z,9.56
2022-11-16T05:33:58.122Z,9.55
2022-11-16T05:36:26.673Z,9.55
2022-11-16T05:38:56.391Z,9.54
2022-11-16T05:41:29.674Z,9.53
2022-11-16T05:44:00.041Z,9.52
2022-11-16T05:46:28.592Z,9.52
2022-11-16T05:49:00.123Z,9.50
2022-11-16T05:51:29.036Z,9.50
2022-11-16T05:53:57.659Z,9.51
2022-11-16T05:56:27.596Z,9.51
2022-11-16T05:58:57.373Z,9.51
2022-11-16T06:01:29.369Z,9.52
2022-11-16T06:04:02.645Z,9.51
2022-11-16T06:06:33.701Z,9.50
2022-11-16T06:09:03.849Z,9.50
2022-11-16T06:11:35.983Z,9.51
2022-11-16T06:14:08.307Z,9.52
2022-11-16T06:16:37.926Z,9.51
2022-11-16T06:19:09.271Z,9.53
2022-11-16T06:21:38.627Z,9.52
2022-11-16T06:24:13.117Z,9.55
2022-11-16T06:26:42.868Z,9.54
2022-11-16T06:29:17.167Z,9.54
2022-11-16T06:31:46.510Z,9.54
2022-11-16T06:34:15.745Z,9.54
2022-11-16T06:36:44.720Z,9.54
2022-11-16T06:39:14.678Z,9.54
2022-11-16T06:41:43.331Z,9.54
2022-11-16T06:44:13.171Z,9.54
2022-11-16T06:46:51.343Z,9.55
2022-11-16T06:49:20.117Z,9.53
2022-11-16T06:51:52.318Z,9.54
2022-11-16T06:54:20.777Z,9.55
2022-11-16T06:56:49.367Z,9.54
2022-11-16T06:59:18.296Z,9.55
2022-11-16T07:01:47.814Z,9.56
2022-11-16T07:04:16.943Z,9.55
2022-11-16T07:06:51.838Z,9.56
2022-11-16T07:09:20.531Z,9.57
2022-11-16T07:11:49.397Z,9.56
2022-11-16T07:14:19.306Z,9.57
2022-11-16T07:16:47.781Z,9.59
2022-11-16T07:19:16.415Z,9.58
2022-11-16T07:21:45.649Z,9.60
2022-11-16T07:24:19.094Z,9.60
2022-11-16T07:26:48.323Z,9.61
2022-11-16T07:29:21.562Z,9.61
2022-11-16T07:32:12.210Z,9.63
2022-11-16T07:34:59.780Z,9.62
2022-11-16T07:37:30.267Z,9.63
2022-11-16T07:39:59.265Z,9.64
2022-11-16T07:42:27.659Z,9.65
2022-11-16T07:45:09.617Z,9.66
2022-11-16T07:47:45.612Z,9.67
2022-11-16T07:50:23.950Z,9.69
2022-11-16T07:52:55.334Z,9.69
2022-11-16T07:55:25.699Z,9.70
2022-11-16T07:57:54.908Z,9.71
2022-11-16T08:00:24.608Z,9.71
2022-11-16T08:03:00.460Z,9.71
2022-11-16T08:05:30.075Z,9.71
2022-11-16T08:07:58.467Z,9.73
2022-11-16T08:10:27.697Z,9.73
2022-11-16T08:12:56.138Z,9.75
2022-11-16T08:15:26.130Z,9.76
2022-11-16T08:17:54.985Z,9.78
2022-11-16T08:20:24.660Z,9.80
2022-11-16T08:22:53.182Z,9.81
2022-11-16T08:25:21.519Z,9.81
2022-11-16T08:27:49.896Z,9.82
2022-11-16T08:30:21.652Z,9.82
2022-11-16T08:32:50.180Z,9.82
2022-11-16T08:35:19.243Z,9.83
2022-11-16T08:37:47.818Z,9.83
2022-11-16T08:40:17.426Z,9.84
2022-11-16T08:42:45.895Z,9.83
2022-11-16T08:45:14.641Z,9.84
2022-11-16T08:47:47.323Z,9.85
2022-11-16T08:50:16.774Z,9.84
2022-11-16T08:52:46.009Z,9.83
2022-11-16T08:55:14.622Z,9.83
2022-11-16T08:57:45.363Z,9.83
2022-11-16T09:00:16.855Z,9.84
2022-11-16T09:02:45.319Z,9.85
2022-11-16T09:05:13.880Z,9.85
2022-11-16T09:07:44.133Z,9.87
2022-11-16T09:10:14.206Z,9.87
2022-11-16T09:12:42.836Z,9.87
2022-11-16T09:15:11.606Z,9.87
2022-11-16T09:17:41.303Z,9.89
2022-11-16T09:20:12.844Z,9.90
2022-11-16T09:22:41.883Z,9.91
2022-11-16T09:25:11.460Z,9.92
2022-11-16T09:27:39.989Z,9.93
2022-11-16T09:30:09.428Z,9.93
2022-11-16T09:32:37.761Z,9.94
2022-11-16T09:35:07.221Z,9.94
2022-11-16T09:37:35.551Z,9.96
2022-11-16T09:40:05.908Z,9.98
2022-11-16T09:42:36.299Z,9.99
2022-11-16T09:45:29.953Z,10.00
2022-11-16T09:48:04.056Z,10.01
2022-11-16T09:50:57.925Z,10.02
2022-11-16T09:53:36.300Z,10.03
2022-11-16T09:56:10.622Z,10.04
2022-11-16T09:58:48.064Z,10.07
2022-11-16T10:01:34.450Z,10.09
2022-11-16T10:04:15.788Z,10.12
2022-11-16T10:06:56.145Z,10.15
2022-11-16T10:09:30.317Z,10.19
2022-11-16T10:12:21.510Z,10.24
2022-11-16T10:15:16.312Z,10.30
2022-11-16T10:18:09.842Z,10.37
2022-11-16T10:20:47.876Z,10.42
2022-11-16T10:23:29.459Z,10.46
2022-11-16T10:26:23.169Z,10.49
2022-11-16T10:29:17.143Z,10.56
2022-11-16T10:31:51.472Z,10.59
2022-11-16T10:34:25.005Z,10.60
2022-11-16T10:36:57.838Z,10.61
2022-11-16T10:39:28.256Z,10.64
2022-11-16T10:42:04.627Z,10.64
2022-11-16T10:44:39.965Z,10.65
2022-11-16T10:47:34.074Z,10.68
2022-11-16T10:50:17.375Z,10.73
2022-11-16T10:52:48.906Z,10.77
2022-11-16T10:55:21.076Z,10.81
2022-11-16T10:58:02.221Z,10.86
2022-11-16T11:00:41.356Z,10.88
2022-11-16T11:03:11.949Z,10.92
2022-11-16T11:05:52.530Z,10.95
2022-11-16T11:08:31.375Z,10.97
2022-11-16T11:11:24.825Z,10.99
2022-11-16T11:14:15.470Z,10.96
2022-11-16T11:16:44.670Z,10.94
2022-11-16T11:19:19.826Z,10.95
2022-11-16T11:21:49.217Z,10.95
2022-11-16T11:24:43.299Z,10.95
2022-11-16T11:27:07.430Z,10.93
2022-11-16T11:29:42.486Z,10.91
2022-11-16T11:32:23.526Z,10.91
2022-11-16T11:34:55.141Z,10.92
2022-11-16T11:37:29.471Z,10.96
2022-11-16T11:40:17.173Z,11.03
2022-11-16T11:43:05.094Z,11.15
2022-11-16T11:46:04.385Z,11.24
2022-11-16T11:48:58.052Z,11.28
2022-11-16T11:51:34.455Z,11.27
2022-11-16T11:54:05.326Z,11.23
2022-11-16T11:56:34.890Z,11.23
2022-11-16T11:59:04.980Z,11.19
2022-11-16T12:02:02.730Z,11.18
2022-11-16T12:04:54.811Z,11.16
2022-11-16T12:07:54.301Z,11.12
2022-11-16T12:10:38.619Z,11.11
2022-11-16T12:13:45.922Z,11.10
2022-11-16T12:16:33.794Z,11.13
2022-11-16T12:19:08.636Z,11.15
2022-11-16T12:21:43.952Z,11.17
2022-11-16T12:24:31.721Z,11.15
2022-11-16T12:27:07.868Z,11.12
2022-11-16T12:29:59.253Z,11.05
2022-11-16T12:32:46.814Z,10.99
2022-11-16T12:35:42.924Z,10.92
2022-11-16T12:39:02.216Z,10.90
2022-11-16T12:41:42.625Z,10.91
2022-11-16T12:44:51.405Z,10.93
2022-11-16T12:48:00.155Z,10.97
2022-11-16T12:50:54.775Z,10.99
2022-11-16T12:53:51.706Z,11.01
2022-11-16T12:56:30.463Z,10.99
2022-11-16T12:59:01.755Z,10.98
2022-11-16T13:01:37.127Z,10.99
2022-11-16T13:04:23.815Z,10.99
2022-11-16T13:07:21.682Z,11.01
2022-11-16T13:10:00.891Z,11.04
2022-11-16T13:12:31.041Z,11.09
2022-11-16T13:15:02.319Z,11.12
2022-11-16T13:17:38.847Z,11.17
2022-11-16T13:20:36.629Z,11.20
2022-11-16T13:23:11.466Z,11.23
2022-11-16T13:25:57.725Z,11.24
2022-11-16T13:28:36.665Z,11.26
2022-11-16T13:31:20.749Z,11.30
2022-11-16T13:34:12.436Z,11.34
2022-11-16T13:36:45.499Z,11.34
2022-11-16T13:39:22.838Z,11.34
2022-11-16T13:42:12.918Z,11.35
2022-11-16T13:44:41.598Z,11.36
2022-11-16T13:47:28.143Z,11.32
2022-11-16T13:50:00.403Z,11.31
2022-11-16T13:53:23.409Z,11.31
2022-11-16T13:55:35.870Z,11.29
2022-11-16T13:58:07.639Z,11.25
2022-11-16T14:00:38.716Z,11.25
2022-11-16T14:03:19.531Z,11.26
2022-11-16T14:05:50.029Z,11.26
2022-11-16T14:08:24.651Z,11.26
2022-11-16T14:11:00.980Z,11.26
2022-11-16T14:13:40.727Z,11.22
2022-11-16T14:16:15.484Z,11.21
2022-11-16T14:18:45.556Z,11.19
2022-11-16T14:21:20.145Z,11.17
2022-11-16T14:24:25.524Z,11.15
2022-11-16T14:27:19.905Z,11.15
2022-11-16T14:30:16.920Z,11.16
2022-11-16T14:32:48.455Z,11.13
2022-11-16T14:35:36.784Z,11.12
2022-11-16T14:38:15.872Z,11.11
2022-11-16T14:40:47.395Z,11.11
2022-11-16T14:43:22.060Z,11.10
2022-11-16T14:46:05.042Z,11.09
2022-11-16T14:48:33.741Z,11.11
2022-11-16T14:51:12.896Z,11.13
2022-11-16T14:53:47.015Z,11.16
2022-11-16T14:56:17.608Z,11.19
2022-11-16T14:58:59.836Z,11.20
2022-11-16T15:01:36.899Z,11.19
2022-11-16T15:04:11.643Z,11.18
2022-11-16T15:06:52.135Z,11.14
2022-11-16T15:09:41.143Z,11.11
2022-11-16T15:12:40.722Z,11.06
2022-11-16T15:15:13.121Z,11.02
2022-11-16T15:17:45.338Z,10.98
2022-11-16T15:20:13.617Z,10.94
2022-11-16T15:22:45.421Z,10.89
2022-11-16T15:25:32.197Z,10.85
2022-11-16T15:28:20.708Z,10.82
2022-11-16T15:30:52.593Z,10.77
2022-11-16T15:33:29.947Z,10.70
2022-11-16T15:35:58.552Z,10.67
2022-11-16T15:38:30.252Z,10.63
2022-11-16T15:41:02.551Z,10.59
2022-11-16T15:44:11.725Z,10.56
2022-11-16T15:46:35.557Z,10.52
2022-11-16T15:49:04.351Z,10.48
2022-11-16T15:51:32.701Z,10.45
2022-11-16T15:54:21.704Z,10.45
2022-11-16T15:56:51.108Z,10.42
2022-11-16T15:59:26.973Z,10.41
2022-11-16T16:02:02.678Z,10.38
2022-11-16T16:04:31.384Z,10.36
2022-11-16T16:07:00.651Z,10.33
2022-11-16T16:09:38.268Z,10.31
2022-11-16T16:12:24.454Z,10.21
2022-11-16T16:14:52.956Z,10.17
2022-11-16T16:17:29.916Z,10.14
2022-11-16T16:20:00.965Z,10.12
2022-11-16T16:22:35.686Z,10.07
2022-11-16T16:25:07.281Z,10.02
2022-11-16T16:27:40.626Z,9.95
2022-11-16T16:30:14.667Z,9.85
2022-11-16T16:32:49.672Z,9.73
2022-11-16T16:35:21.603Z,9.66
2022-11-16T16:37:55.828Z,9.62
2022-11-16T16:40:24.468Z,9.57
2022-11-16T16:42:53.439Z,9.53
2022-11-16T16:45:34.515Z,9.51
2022-11-16T16:48:02.862Z,9.46
2022-11-16T16:50:38.029Z,9.43
2022-11-16T16:53:06.556Z,9.38
2022-11-16T16:55:47.705Z,9.38
2022-11-16T16:58:16.312Z,9.34
2022-11-16T17:00:44.806Z,9.31
2022-11-16T17:03:13.193Z,9.23
2022-11-16T17:05:41.511Z,9.21
2022-11-16T17:08:09.974Z,9.18
2022-11-16T17:10:39.966Z,9.11
2022-11-16T17:13:12.518Z,9.04
2022-11-16T17:15:43.843Z,8.98
2022-11-16T17:18:12.500Z,8.96
2022-11-16T17:20:45.231Z,8.91
2022-11-16T17:23:13.896Z,8.86
2022-11-16T17:25:42.420Z,8.81
2022-11-16T17:28:10.699Z,8.75
2022-11-16T17:30:39.090Z,8.70
2022-11-16T17:33:09.086Z,8.68
2022-11-16T17:35:37.488Z,8.65
2022-11-16T17:38:09.852Z,8.62
2022-11-16T17:40:43.118Z,8.61
2022-11-16T17:43:11.790Z,8.55
2022-11-16T17:45:40.588Z,8.51
2022-11-16T17:48:09.033Z,8.47
2022-11-16T17:50:37.921Z,8.45
2022-11-16T17:53:06.257Z,8.44
2022-11-16T17:55:34.823Z,8.43
2022-11-16T17:58:03.533Z,8.42
2022-11-16T18:00:32.213Z,8.36
2022-11-16T18:03:01.461Z,8.33
2022-11-16T18:05:30.817Z,8.32
2022-11-16T18:07:59.326Z,8.28
2022-11-16T18:10:27.604Z,8.24
2022-11-16T18:12:57.350Z,8.22
2022-11-16T18:15:29.240Z,8.19
2022-11-16T18:17:58.811Z,8.17
2022-11-16T18:20:27.851Z,8.18
2022-11-16T18:22:57.033Z,8.15
2022-11-16T18:25:25.878Z,8.12
2022-11-16T18:27:55.138Z,8.08
2022-11-16T18:30:24.646Z,8.05
2022-11-16T18:32:53.868Z,8.00
2022-11-16T18:35:22.407Z,8.00
2022-11-16T18:37:50.802Z,7.97
2022-11-16T18:40:19.217Z,7.97
2022-11-16T18:42:47.792Z,7.96
2022-11-16T18:45:16.252Z,7.95
2022-11-16T18:47:45.706Z,7.90
2022-11-16T18:50:21.300Z,7.86
2022-11-16T18:52:52.693Z,7.84
2022-11-16T18:55:21.005Z,7.83
2022-11-16T18:57:49.283Z,7.80
2022-11-16T19:00:19.677Z,7.78
2022-11-16T19:02:48.041Z,7.76
2022-11-16T19:05:16.685Z,7.72
2022-11-16T19:07:45.192Z,7.70
2022-11-16T19:10:14.598Z,7.69
2022-11-16T19:12:43.075Z,7.67
2022-11-16T19:15:13.283Z,7.64
2022-11-16T19:18:06.260Z,7.59
2022-11-16T19:20:30.271Z,7.55
2022-11-16T19:23:05.777Z,7.50
2022-11-16T19:25:34.065Z,7.49
2022-11-16T19:28:05.817Z,7.49
2022-11-16T19:30:34.133Z,7.45
2022-11-16T19:33:04.195Z,7.45
2022-11-16T19:35:32.505Z,7.39
2022-11-16T19:38:00.837Z,7.40
2022-11-16T19:40:29.688Z,7.38
2022-11-16T19:42:57.971Z,7.38
2022-11-16T19:45:26.324Z,7.39
2022-11-16T19:47:56.185Z,7.39
2022-11-16T19:50:25.294Z,7.38
2022-11-16T19:52:53.602Z,7.38
2022-11-16T19:55:22.164Z,7.36
2022-11-16T19:57:50.617Z,7.35
2022-11-16T20:00:20.726Z,7.32
2022-11-16T20:02:50.072Z,7.34
2022-11-16T20:05:18.349Z,7.32
2022-11-16T20:07:48.681Z,7.32
2022-11-16T20:10:17.458Z,7.29
2022-11-16T20:12:45.898Z,7.30
2022-11-16T20:15:16.384Z,7.27
2022-11-16T20:17:44.977Z,7.25
2022-11-16T20:20:13.858Z,7.25
2022-11-16T20:22:43.836Z,7.26
2022-11-16T20:25:12.201Z,7.23
2022-11-16T20:27:40.605Z,7.26
2022-11-16T20:30:10.020Z,7.26
2022-11-16T20:32:38.498Z,7.28
2022-11-16T20:35:18.794Z,7.28
2022-11-16T20:37:47.632Z,7.28
2022-11-16T20:40:16.115Z,7.30
2022-11-16T20:42:44.505Z,7.30
2022-11-16T20:45:13.038Z,7.29
2022-11-16T20:47:42.751Z,7.27
2022-11-16T20:50:13.678Z,7.28
2022-11-16T20:52:43.700Z,7.28
2022-11-16T20:55:14.750Z,7.26
2022-11-16T20:57:46.473Z,7.25
2022-11-16T21:00:15.646Z,7.24
2022-11-16T21:02:44.339Z,7.24
2022-11-16T21:05:14.498Z,7.23
2022-11-16T21:07:44.435Z,7.22
2022-11-16T21:10:20.395Z,7.20
2022-11-16T21:13:07.882Z,7.19
2022-11-16T21:15:36.494Z,7.20
2022-11-16T21:18:05.505Z,7.22
2022-11-16T21:20:34.051Z,7.24
2022-11-16T21:23:02.704Z,7.25
2022-11-16T21:25:31.170Z,7.21
2022-11-16T21:27:59.831Z,7.21
2022-11-16T21:30:28.297Z,7.20
2022-11-16T21:32:56.808Z,7.20
2022-11-16T21:35:29.554Z,7.21
2022-11-16T21:37:58.144Z,7.20
2022-11-16T21:40:26.629Z,7.19
2022-11-16T21:42:55.180Z,7.16
2022-11-16T21:45:23.491Z,7.11
2022-11-16T21:47:51.843Z,7.13
2022-11-16T21:50:31.760Z,7.10
2022-11-16T21:53:02.986Z,7.11
2022-11-16T21:55:31.957Z,7.10
2022-11-16T21:58:01.055Z,7.06
2022-11-16T22:00:30.035Z,7.05
2022-11-16T22:03:00.308Z,7.02
2022-11-16T22:05:47.847Z,7.01
2022-11-16T22:08:17.560Z,7.01
2022-11-16T22:10:53.018Z,7.01
2022-11-16T22:13:22.048Z,6.99
2022-11-16T22:15:51.756Z,6.99
2022-11-16T22:18:20.389Z,6.97
2022-11-16T22:20:49.488Z,6.97
2022-11-16T22:23:22.683Z,6.95
2022-11-16T22:25:51.932Z,6.95
2022-11-16T22:28:21.508Z,6.93
2022-11-16T22:30:52.073Z,6.93
2022-11-16T22:33:20.668Z,6.92
2022-11-16T22:35:48.928Z,6.94
2022-11-16T22:38:17.307Z,6.94
2022-11-16T22:40:54.741Z,6.96
2022-11-16T22:43:28.799Z,6.95
2022-11-16T22:46:02.103Z,6.95
2022-11-16T22:48:36.352Z,6.94
2022-11-16T22:51:21.109Z,6.92
2022-11-16T22:53:57.555Z,6.94
2022-11-16T22:56:26.663Z,6.93
2022-11-16T22:58:55.129Z,6.94
2022-11-16T23:01:24.475Z,6.95
2022-11-16T23:03:53.335Z,6.95
2022-11-16T23:06:22.314Z,6.96
2022-11-16T23:08:52.181Z,6.97
2022-11-16T23:11:44.831Z,6.97
2022-11-16T23:14:33.905Z,6.98
2022-11-16T23:17:07.249Z,6.97
2022-11-16T23:19:54.188Z,6.98
2022-11-16T23:22:42.962Z,6.97
2022-11-16T23:25:30.664Z,6.99
2022-11-16T23:28:10.088Z,6.98
2022-11-16T23:30:39.860Z,6.97
2022-11-16T23:33:09.801Z,6.93
2022-11-16T23:35:38.660Z,6.95
2022-11-16T23:38:08.284Z,6.95
2022-11-16T23:40:38.635Z,6.95
2022-11-16T23:43:29.411Z,6.95
2022-11-16T23:45:58.758Z,6.95
2022-11-16T23:48:27.078Z,6.97
2022-11-16T23:50:55.743Z,6.94
2022-11-16T23:53:24.631Z,6.94
2022-11-16T23:55:52.951Z,6.93
2022-11-16T23:58:21.241Z,6.92
